Time;durP1;ratioP1;P1;durP2;ratioP2;P2;SDS_P1;SDS_P2;PMS_P1;PMS_P2;Temp;Humidity;BMP_temperature;BMP_pressure;BME280_temperature;BME280_humidity;BME280_pressure;Samples;Min_cycle;Max_cycle;Signal;HPM_P1;HPM_P2
2021/11/03 00:01:30;;;;;;;3.30;2.08;;;;;;;;;;5037640;28;20115;-58
2021/11/03 00:03:55;;;;;;;3.00;2.38;;;;;;;;;;5036290;28;20091;-58
2021/11/03 00:06:22;;;;;;;3.45;2.75;;;;;;;;;;5037984;28;20061;-59
2021/11/03 00:08:48;;;;;;;4.70;2.25;;;;;;;;;;5040228;28;20438;-58
2021/11/03 00:11:15;;;;;;;3.25;2.65;;;;;;;;;;5037289;28;20106;-58
2021/11/03 00:13:40;;;;;;;2.85;2.40;;;;;;;;;;5038380;28;20037;-59
2021/11/03 00:16:06;;;;;;;3.55;2.53;;;;;;;;;;5037752;28;20059;-59
2021/11/03 00:18:31;;;;;;;3.88;2.97;;;;;;;;;;5037412;28;20056;-59
2021/11/03 00:20:58;;;;;;;5.57;2.83;;;;;;;;;;5037155;28;20060;-59
2021/11/03 00:23:25;;;;;;;4.03;3.45;;;;;;;;;;5039077;28;20037;-58
2021/11/03 00:25:51;;;;;;;3.25;2.58;;;;;;;;;;5037098;28;20092;-59
2021/11/03 00:28:19;;;;;;;3.22;2.63;;;;;;;;;;5037732;28;20160;-59
2021/11/03 00:30:46;;;;;;;2.70;2.10;;;;;;;;;;5037217;28;20037;-58
2021/11/03 00:33:12;;;;;;;3.88;2.92;;;;;;;;;;5034929;28;20033;-59
2021/11/03 00:35:38;;;;;;;3.28;2.83;;;;;;;;;;5033906;28;20052;-59
2021/11/03 00:38:04;;;;;;;3.17;2.72;;;;;;;;;;5041670;28;20025;-60
2021/11/03 00:40:29;;;;;;;2.80;2.05;;;;;;;;;;5038285;28;20029;-59
2021/11/03 00:42:55;;;;;;;3.38;2.80;;;;;;;;;;5038923;28;20470;-59
2021/11/03 00:45:21;;;;;;;9.93;3.08;;;;;;;;;;5037915;28;20033;-59
2021/11/03 00:47:47;;;;;;;3.05;2.53;;;;;;;;;;5040823;28;20032;-60
2021/11/03 00:50:13;;;;;;;3.33;2.92;;;;;;;;;;5037857;28;20021;-60
2021/11/03 00:52:39;;;;;;;3.67;3.20;;;;;;;;;;5036971;28;20053;-59
2021/11/03 00:55:05;;;;;;;3.13;2.60;;;;;;;;;;5040487;28;20131;-60
2021/11/03 00:57:30;;;;;;;8.05;3.47;;;;;;;;;;5039863;28;20037;-59
2021/11/03 00:59:56;;;;;;;2.95;2.25;;;;;;;;;;5038237;28;20030;-59
2021/11/03 01:02:21;;;;;;;3.17;2.20;;;;;;;;;;5040494;28;20029;-59
2021/11/03 01:04:47;;;;;;;3.80;2.97;;;;;;;;;;5035076;28;20112;-60
2021/11/03 01:07:12;;;;;;;3.97;3.13;;;;;;;;;;5038340;28;20029;-59
2021/11/03 01:09:38;;;;;;;3.78;2.97;;;;;;;;;;5035557;28;20029;-60
2021/11/03 01:12:05;;;;;;;4.45;3.00;;;;;;;;;;5038407;28;20037;-60
2021/11/03 01:14:31;;;;;;;3.90;3.10;;;;;;;;;;5039067;28;20032;-60
2021/11/03 01:16:57;;;;;;;4.35;3.10;;;;;;;;;;5039241;28;20060;-59
2021/11/03 01:19:22;;;;;;;3.10;2.70;;;;;;;;;;5037035;28;20041;-59
2021/11/03 01:21:48;;;;;;;4.60;3.03;;;;;;;;;;5035438;28;20040;-60
2021/11/03 01:24:13;;;;;;;4.20;2.78;;;;;;;;;;5037511;28;20022;-59
2021/11/03 01:26:39;;;;;;;3.88;3.38;;;;;;;;;;5033152;28;20029;-60
2021/11/03 01:29:05;;;;;;;3.22;2.70;;;;;;;;;;5037393;28;20086;-60
2021/11/03 01:31:32;;;;;;;3.85;3.53;;;;;;;;;;5034451;28;20115;-60
2021/11/03 01:33:59;;;;;;;4.43;3.08;;;;;;;;;;5034920;28;20030;-60
2021/11/03 01:36:25;;;;;;;3.08;2.55;;;;;;;;;;5032078;28;20112;-60
2021/11/03 01:38:51;;;;;;;3.05;2.58;;;;;;;;;;5034195;28;20435;-60
2021/11/03 01:41:17;;;;;;;3.42;2.83;;;;;;;;;;5033167;28;20104;-60
2021/11/03 01:43:46;;;;;;;3.70;2.90;;;;;;;;;;5036896;28;20040;-60
2021/11/03 01:46:37;;;;;;;3.05;2.75;;;;;;;;;;5035097;28;20087;-60
2021/11/03 01:49:12;;;;;;;3.95;2.97;;;;;;;;;;5036734;28;20059;-58
2021/11/03 01:51:42;;;;;;;2.88;2.38;;;;;;;;;;5032986;28;20029;-60
2021/11/03 01:54:12;;;;;;;3.60;2.85;;;;;;;;;;5034618;28;20033;-60
2021/11/03 01:56:38;;;;;;;3.92;3.13;;;;;;;;;;5033595;28;20021;-59
2021/11/03 01:59:14;;;;;;;3.83;2.85;;;;;;;;;;5034213;28;20044;-58
2021/11/03 02:01:39;;;;;;;4.20;2.65;;;;;;;;;;5036377;28;20071;-58
2021/11/03 02:04:06;;;;;;;3.10;2.67;;;;;;;;;;5035460;28;20389;-58
2021/11/03 02:06:32;;;;;;;3.70;2.47;;;;;;;;;;5036029;28;20039;-59
2021/11/03 02:08:58;;;;;;;3.28;2.97;;;;;;;;;;5032195;28;20459;-61
2021/11/03 02:11:25;;;;;;;2.75;2.13;;;;;;;;;;5033980;28;20037;-60
2021/11/03 02:13:51;;;;;;;3.80;2.22;;;;;;;;;;5032617;28;20041;-60
2021/11/03 02:16:18;;;;;;;3.20;2.80;;;;;;;;;;5036009;28;20091;-60
2021/11/03 02:18:44;;;;;;;3.55;2.97;;;;;;;;;;5036265;28;20037;-60
2021/11/03 02:21:15;;;;;;;3.58;2.47;;;;;;;;;;5036492;28;20390;-58
2021/11/03 02:23:44;;;;;;;3.58;2.92;;;;;;;;;;5035052;28;20029;-60
2021/11/03 02:26:17;;;;;;;5.03;2.40;;;;;;;;;;5035026;28;20039;-60
2021/11/03 02:28:46;;;;;;;3.47;2.72;;;;;;;;;;5037287;28;20055;-60
2021/11/03 02:31:47;;;;;;;3.90;2.80;;;;;;;;;;5035822;28;20036;-60
2021/11/03 02:34:21;;;;;;;3.67;2.00;;;;;;;;;;5034538;28;20409;-58
2021/11/03 02:37:01;;;;;;;2.97;2.20;;;;;;;;;;5033903;28;20056;-60
2021/11/03 02:39:48;;;;;;;3.10;2.10;;;;;;;;;;5030836;28;20033;-60
2021/11/03 02:42:14;;;;;;;3.90;2.75;;;;;;;;;;5033408;28;20041;-60
2021/11/03 02:44:41;;;;;;;4.38;2.75;;;;;;;;;;5036251;28;20029;-57
2021/11/03 02:47:07;;;;;;;2.50;1.92;;;;;;;;;;5034739;28;20060;-60
2021/11/03 02:49:38;;;;;;;3.45;2.63;;;;;;;;;;5034258;28;20044;-59
2021/11/03 02:52:14;;;;;;;2.80;2.17;;;;;;;;;;5035736;28;20033;-60
2021/11/03 02:54:40;;;;;;;2.63;2.03;;;;;;;;;;5029884;28;20482;-59
2021/11/03 02:57:07;;;;;;;5.60;3.40;;;;;;;;;;5031788;28;20120;-60
2021/11/03 02:59:33;;;;;;;5.15;3.38;;;;;;;;;;5034014;28;20079;-59
2021/11/03 03:02:01;;;;;;;3.05;2.30;;;;;;;;;;5035497;28;20102;-59
2021/11/03 03:04:55;;;;;;;4.47;2.17;;;;;;;;;;5033400;28;20033;-59
2021/11/03 03:07:21;;;;;;;2.60;1.92;;;;;;;;;;5036295;28;20103;-59
2021/11/03 03:09:47;;;;;;;3.10;2.20;;;;;;;;;;5033737;28;20029;-59
2021/11/03 03:12:17;;;;;;;2.80;2.22;;;;;;;;;;5036631;28;20033;-59
2021/11/03 03:14:45;;;;;;;2.92;2.17;;;;;;;;;;5038547;28;20032;-59
2021/11/03 03:17:14;;;;;;;2.58;1.88;;;;;;;;;;5034714;28;20041;-59
2021/11/03 03:19:41;;;;;;;2.40;1.77;;;;;;;;;;5030175;28;20034;-59
2021/11/03 03:22:08;;;;;;;2.45;1.77;;;;;;;;;;5038191;28;20026;-59
2021/11/03 03:24:34;;;;;;;2.97;2.38;;;;;;;;;;5040732;28;20033;-59
2021/11/03 03:27:00;;;;;;;2.97;2.05;;;;;;;;;;5039957;28;20033;-59
2021/11/03 03:29:27;;;;;;;2.70;2.03;;;;;;;;;;5037602;28;20148;-59
2021/11/03 03:31:52;;;;;;;2.67;2.03;;;;;;;;;;5038872;28;20045;-59
2021/11/03 03:34:23;;;;;;;2.72;2.05;;;;;;;;;;5037597;28;20052;-60
2021/11/03 03:36:49;;;;;;;3.22;2.45;;;;;;;;;;5038681;28;20043;-60
2021/11/03 03:39:18;;;;;;;2.47;1.77;;;;;;;;;;5038096;28;20033;-60
2021/11/03 03:41:48;;;;;;;2.95;2.30;;;;;;;;;;5037021;28;20030;-60
2021/11/03 03:44:13;;;;;;;4.30;2.60;;;;;;;;;;5037333;28;20025;-60
2021/11/03 03:46:39;;;;;;;3.35;2.47;;;;;;;;;;5037603;28;20351;-61
2021/11/03 03:49:06;;;;;;;3.42;2.83;;;;;;;;;;5039742;28;20033;-61
2021/11/03 03:51:32;;;;;;;2.63;2.00;;;;;;;;;;5038337;28;20033;-61
2021/11/03 03:53:57;;;;;;;3.15;2.47;;;;;;;;;;5036355;28;20112;-63
2021/11/03 03:56:23;;;;;;;2.95;2.35;;;;;;;;;;5038311;28;20030;-62
2021/11/03 03:58:50;;;;;;;2.90;2.03;;;;;;;;;;5040036;28;20094;-61
2021/11/03 04:01:17;;;;;;;2.70;2.00;;;;;;;;;;5037885;28;20492;-61
2021/11/03 04:03:43;;;;;;;2.92;2.40;;;;;;;;;;5036965;28;20036;-62
2021/11/03 04:06:08;;;;;;;3.20;2.22;;;;;;;;;;5039221;28;20057;-61
2021/11/03 04:08:34;;;;;;;3.33;2.50;;;;;;;;;;5038995;28;20485;-61
2021/11/03 04:10:59;;;;;;;3.58;2.78;;;;;;;;;;5040821;28;20072;-62
2021/11/03 04:13:26;;;;;;;2.55;1.83;;;;;;;;;;5038901;28;20086;-61
2021/11/03 04:15:53;;;;;;;2.60;2.05;;;;;;;;;;5035367;28;20041;-62
2021/11/03 04:18:19;;;;;;;2.65;2.05;;;;;;;;;;5038114;28;20466;-62
2021/11/03 04:20:44;;;;;;;2.90;2.40;;;;;;;;;;5036790;28;20036;-63
2021/11/03 04:23:10;;;;;;;3.38;2.42;;;;;;;;;;5037765;28;20114;-63
2021/11/03 04:25:36;;;;;;;3.28;2.30;;;;;;;;;;5037311;28;20439;-62
2021/11/03 04:28:03;;;;;;;3.08;2.17;;;;;;;;;;5038454;28;20033;-63
2021/11/03 04:30:29;;;;;;;3.03;2.20;;;;;;;;;;5037521;28;20049;-63
2021/11/03 04:32:55;;;;;;;3.17;2.50;;;;;;;;;;5036482;28;20478;-62
2021/11/03 04:35:21;;;;;;;3.30;2.58;;;;;;;;;;5038421;28;20044;-63
2021/11/03 04:37:46;;;;;;;2.80;2.00;;;;;;;;;;5039577;28;20466;-62
2021/11/03 04:40:15;;;;;;;3.13;2.20;;;;;;;;;;5036061;28;20033;-62
2021/11/03 04:42:40;;;;;;;2.95;2.35;;;;;;;;;;5039934;28;20028;-62
2021/11/03 04:45:07;;;;;;;2.95;2.35;;;;;;;;;;5039051;28;20037;-62
2021/11/03 04:47:32;;;;;;;3.05;2.47;;;;;;;;;;5035751;28;20029;-62
2021/11/03 04:49:59;;;;;;;3.65;2.30;;;;;;;;;;5036593;28;20536;-62
2021/11/03 04:52:25;;;;;;;2.47;1.95;;;;;;;;;;5039568;28;20136;-62
2021/11/03 04:54:53;;;;;;;3.42;2.75;;;;;;;;;;5038056;28;20032;-61
2021/11/03 04:57:18;;;;;;;3.05;2.67;;;;;;;;;;5037889;28;20123;-61
2021/11/03 04:59:45;;;;;;;3.45;2.85;;;;;;;;;;5036170;28;20116;-60
2021/11/03 05:02:12;;;;;;;2.90;2.50;;;;;;;;;;5035230;28;20026;-61
2021/11/03 05:04:37;;;;;;;2.70;2.25;;;;;;;;;;5034194;28;20458;-61
2021/11/03 05:07:03;;;;;;;3.40;2.63;;;;;;;;;;5037639;28;20048;-61
2021/11/03 05:09:29;;;;;;;3.40;2.53;;;;;;;;;;5036063;28;20831;-62
2021/11/03 05:11:54;;;;;;;3.08;2.45;;;;;;;;;;5034874;28;20035;-61
2021/11/03 05:14:20;;;;;;;2.78;2.17;;;;;;;;;;5037916;28;20039;-61
2021/11/03 05:16:45;;;;;;;2.78;2.05;;;;;;;;;;5037440;28;20132;-61
2021/11/03 05:19:20;;;;;;;2.92;2.40;;;;;;;;;;5036186;28;20379;-62
2021/11/03 05:21:50;;;;;;;2.97;2.47;;;;;;;;;;5038142;28;20369;-61
2021/11/03 05:24:16;;;;;;;2.50;1.98;;;;;;;;;;5036176;28;20036;-62
2021/11/03 05:26:41;;;;;;;3.30;2.80;;;;;;;;;;5037484;28;20033;-63
2021/11/03 05:29:07;;;;;;;3.30;2.60;;;;;;;;;;5034199;28;20402;-63
2021/11/03 05:31:33;;;;;;;2.95;2.17;;;;;;;;;;5038626;28;20103;-63
2021/11/03 05:33:58;;;;;;;2.97;2.25;;;;;;;;;;5038190;28;20396;-65
2021/11/03 05:36:27;;;;;;;3.28;2.40;;;;;;;;;;5035685;28;20040;-64
2021/11/03 05:38:53;;;;;;;2.72;2.03;;;;;;;;;;5036620;28;20438;-64
2021/11/03 05:41:19;;;;;;;3.15;2.38;;;;;;;;;;5036528;28;20033;-64
2021/11/03 05:43:44;;;;;;;4.70;2.47;;;;;;;;;;5036637;28;20108;-65
2021/11/03 05:46:15;;;;;;;3.70;2.67;;;;;;;;;;5038784;28;20040;-64
2021/11/03 05:48:43;;;;;;;3.13;2.80;;;;;;;;;;5038642;28;20506;-64
2021/11/03 05:51:09;;;;;;;3.40;2.40;;;;;;;;;;5035039;28;20044;-63
2021/11/03 05:53:37;;;;;;;3.25;2.70;;;;;;;;;;5036060;28;20025;-64
2021/11/03 05:56:07;;;;;;;3.15;2.55;;;;;;;;;;5037096;28;20056;-65
2021/11/03 05:58:33;;;;;;;3.92;2.92;;;;;;;;;;5035620;28;20045;-64
2021/11/03 06:00:58;;;;;;;2.95;1.90;;;;;;;;;;5036798;28;20157;-64
2021/11/03 06:03:24;;;;;;;3.25;2.25;;;;;;;;;;5035804;28;20047;-64
2021/11/03 06:05:50;;;;;;;2.80;2.30;;;;;;;;;;5037676;28;20029;-65
2021/11/03 06:08:15;;;;;;;2.40;1.77;;;;;;;;;;5030738;28;20098;-65
2021/11/03 06:10:42;;;;;;;2.80;2.40;;;;;;;;;;5033692;28;20343;-65
2021/11/03 06:13:09;;;;;;;2.90;2.40;;;;;;;;;;5034021;28;20102;-65
2021/11/03 06:15:37;;;;;;;4.63;2.50;;;;;;;;;;5033958;28;20048;-65
2021/11/03 06:18:03;;;;;;;2.88;2.22;;;;;;;;;;5033415;28;20036;-65
2021/11/03 06:20:29;;;;;;;2.97;2.15;;;;;;;;;;5032333;28;20057;-64
2021/11/03 06:22:55;;;;;;;3.22;2.60;;;;;;;;;;5031212;28;20037;-65
2021/11/03 06:25:21;;;;;;;3.95;3.30;;;;;;;;;;5034410;28;20095;-66
2021/11/03 06:27:48;;;;;;;4.15;3.63;;;;;;;;;;5033877;28;20167;-65
2021/11/03 06:30:19;;;;;;;9.13;3.38;;;;;;;;;;5031384;28;20021;-64
2021/11/03 06:32:45;;;;;;;4.22;3.53;;;;;;;;;;5031840;28;20039;-64
2021/11/03 06:35:12;;;;;;;3.83;2.97;;;;;;;;;;5033200;28;20128;-64
2021/11/03 06:37:38;;;;;;;3.78;2.95;;;;;;;;;;5035953;28;20033;-64
2021/11/03 06:40:10;;;;;;;4.43;3.40;;;;;;;;;;5035068;28;20117;-64
2021/11/03 06:42:36;;;;;;;4.50;3.38;;;;;;;;;;5032801;28;20045;-64
2021/11/03 06:45:06;;;;;;;4.03;3.63;;;;;;;;;;5037330;28;20028;-64
2021/11/03 06:47:31;;;;;;;3.20;2.55;;;;;;;;;;5036144;28;20063;-64
2021/11/03 06:49:57;;;;;;;4.47;3.65;;;;;;;;;;5035608;28;20061;-64
2021/11/03 06:52:23;;;;;;;4.93;3.40;;;;;;;;;;5034938;28;20048;-64
2021/11/03 06:54:48;;;;;;;3.60;2.85;;;;;;;;;;5031273;28;20075;-64
2021/11/03 06:57:14;;;;;;;3.70;2.72;;;;;;;;;;5038655;28;20020;-65
2021/11/03 06:59:40;;;;;;;3.00;2.55;;;;;;;;;;5034832;28;20451;-64
2021/11/03 07:02:07;;;;;;;4.25;3.33;;;;;;;;;;5015837;28;20025;-64
2021/11/03 07:04:32;;;;;;;3.67;3.28;;;;;;;;;;5034776;28;20239;-64
2021/11/03 07:06:58;;;;;;;6.13;5.25;;;;;;;;;;5034715;28;20083;-65
2021/11/03 07:09:24;;;;;;;9.02;6.40;;;;;;;;;;5036437;28;20036;-65
2021/11/03 07:11:49;;;;;;;17.42;10.93;;;;;;;;;;5035871;28;20033;-64
2021/11/03 07:14:14;;;;;;;4.07;3.13;;;;;;;;;;5034865;28;20060;-64
2021/11/03 07:16:40;;;;;;;6.32;3.85;;;;;;;;;;5031028;28;20206;-64
2021/11/03 07:19:06;;;;;;;4.18;3.60;;;;;;;;;;5033995;28;20065;-64
2021/11/03 07:21:31;;;;;;;3.90;3.03;;;;;;;;;;5035218;28;20128;-65
2021/11/03 07:23:57;;;;;;;3.40;2.60;;;;;;;;;;5033626;28;20080;-65
2021/11/03 07:26:23;;;;;;;3.30;2.53;;;;;;;;;;5033117;28;20034;-65
2021/11/03 07:28:48;;;;;;;2.80;2.25;;;;;;;;;;5032097;28;20025;-64
2021/11/03 07:31:14;;;;;;;5.38;4.03;;;;;;;;;;5030534;28;20507;-64
2021/11/03 07:33:41;;;;;;;3.30;2.60;;;;;;;;;;5030698;28;20041;-64
2021/11/03 07:36:14;;;;;;;3.33;2.55;;;;;;;;;;5033443;28;20037;-64
2021/11/03 07:38:40;;;;;;;3.90;2.92;;;;;;;;;;5033717;28;20367;-64
2021/11/03 07:41:05;;;;;;;3.60;2.67;;;;;;;;;;5034881;28;20112;-65
2021/11/03 07:43:32;;;;;;;4.35;2.92;;;;;;;;;;5035518;28;20044;-64
2021/11/03 07:45:58;;;;;;;3.35;2.60;;;;;;;;;;5035537;28;20029;-64
2021/11/03 07:48:26;;;;;;;2.90;2.45;;;;;;;;;;5035326;28;20167;-64
2021/11/03 07:51:00;;;;;;;2.88;2.40;;;;;;;;;;5034595;28;20044;-64
2021/11/03 07:53:26;;;;;;;3.03;2.30;;;;;;;;;;5037838;28;20099;-65
2021/11/03 07:55:58;;;;;;;3.03;2.17;;;;;;;;;;5037122;28;20060;-65
2021/11/03 07:58:26;;;;;;;2.85;2.53;;;;;;;;;;5037312;28;20059;-65
2021/11/03 08:00:52;;;;;;;3.92;2.65;;;;;;;;;;5040106;28;20454;-65
2021/11/03 08:03:18;;;;;;;3.25;2.58;;;;;;;;;;5035339;28;20110;-65
2021/11/03 08:05:44;;;;;;;3.58;2.65;;;;;;;;;;5038003;28;20132;-64
2021/11/03 08:08:12;;;;;;;3.92;3.08;;;;;;;;;;5035645;28;20443;-65
2021/11/03 08:10:42;;;;;;;3.35;2.35;;;;;;;;;;5033514;28;20048;-65
2021/11/03 08:13:13;;;;;;;3.60;2.35;;;;;;;;;;5034173;28;20410;-65
2021/11/03 08:15:38;;;;;;;4.18;2.80;;;;;;;;;;5038403;28;20033;-63
2021/11/03 08:18:05;;;;;;;3.17;2.53;;;;;;;;;;5038993;28;20175;-63
2021/11/03 08:20:30;;;;;;;4.32;2.53;;;;;;;;;;5037471;28;20076;-63
2021/11/03 08:22:59;;;;;;;5.05;2.55;;;;;;;;;;5037128;28;20148;-63
2021/11/03 08:25:27;;;;;;;3.00;2.45;;;;;;;;;;5036753;28;20390;-64
2021/11/03 08:27:53;;;;;;;3.28;2.78;;;;;;;;;;5039294;28;20039;-63
2021/11/03 08:30:19;;;;;;;6.50;2.70;;;;;;;;;;5033730;28;20109;-63
2021/11/03 08:32:52;;;;;;;3.00;2.25;;;;;;;;;;5037625;28;20029;-64
2021/11/03 08:35:19;;;;;;;3.53;2.78;;;;;;;;;;5037027;28;20135;-63
2021/11/03 08:37:46;;;;;;;3.10;2.17;;;;;;;;;;5035860;28;20029;-63
2021/11/03 08:40:14;;;;;;;2.78;2.05;;;;;;;;;;5036348;28;20086;-62
2021/11/03 08:42:40;;;;;;;2.90;2.00;;;;;;;;;;5036745;28;20022;-63
2021/11/03 08:45:07;;;;;;;2.90;2.25;;;;;;;;;;5036463;28;20107;-62
2021/11/03 08:47:33;;;;;;;2.92;2.08;;;;;;;;;;5035725;28;20042;-63
2021/11/03 08:49:59;;;;;;;2.70;2.00;;;;;;;;;;5037253;28;20044;-63
2021/11/03 08:52:25;;;;;;;3.22;2.50;;;;;;;;;;5035039;28;20029;-63
2021/11/03 08:54:50;;;;;;;3.25;2.47;;;;;;;;;;5031696;28;20470;-63
2021/11/03 08:57:19;;;;;;;2.70;2.15;;;;;;;;;;5036423;28;20048;-63
2021/11/03 08:59:47;;;;;;;3.33;2.75;;;;;;;;;;5036791;28;20018;-64
2021/11/03 09:02:12;;;;;;;2.95;2.45;;;;;;;;;;5031868;28;20514;-63
2021/11/03 09:04:38;;;;;;;2.72;2.00;;;;;;;;;;5033595;28;20032;-63
2021/11/03 09:07:11;;;;;;;3.63;2.38;;;;;;;;;;5035537;28;20029;-63
2021/11/03 09:09:37;;;;;;;3.25;2.58;;;;;;;;;;5033027;28;20421;-63
2021/11/03 09:12:03;;;;;;;3.80;2.28;;;;;;;;;;5038058;28;20100;-63
2021/11/03 09:14:28;;;;;;;3.30;2.42;;;;;;;;;;5030651;28;20029;-62
2021/11/03 09:16:54;;;;;;;2.85;2.38;;;;;;;;;;5032222;28;20032;-62
2021/11/03 09:19:19;;;;;;;2.60;1.85;;;;;;;;;;5033748;28;20029;-63
2021/11/03 09:21:45;;;;;;;2.70;2.00;;;;;;;;;;5033368;28;20041;-63
2021/11/03 09:24:12;;;;;;;3.33;2.65;;;;;;;;;;5033213;28;20964;-63
2021/11/03 09:26:39;;;;;;;2.70;2.10;;;;;;;;;;5033065;28;20067;-63
2021/11/03 09:29:06;;;;;;;2.70;1.98;;;;;;;;;;5033160;28;20025;-63
2021/11/03 09:31:32;;;;;;;2.67;1.98;;;;;;;;;;5032924;28;20094;-63
2021/11/03 09:33:58;;;;;;;3.33;2.33;;;;;;;;;;5034116;28;20048;-63
2021/11/03 09:36:25;;;;;;;3.83;2.83;;;;;;;;;;5030948;28;20116;-63
2021/11/03 09:38:51;;;;;;;2.80;2.30;;;;;;;;;;5033341;28;20029;-63
2021/11/03 09:41:20;;;;;;;3.00;2.42;;;;;;;;;;5032040;28;21370;-64
2021/11/03 09:44:17;;;;;;;2.80;2.45;;;;;;;;;;5035463;28;20032;-63
2021/11/03 09:46:46;;;;;;;2.80;2.08;;;;;;;;;;5029824;28;20064;-62
2021/11/03 09:49:21;;;;;;;3.30;2.40;;;;;;;;;;5033371;28;20049;-63
2021/11/03 09:51:52;;;;;;;4.18;2.90;;;;;;;;;;5034617;28;20044;-63
2021/11/03 09:54:25;;;;;;;2.95;2.38;;;;;;;;;;5036198;28;20033;-65
2021/11/03 09:57:17;;;;;;;3.03;2.20;;;;;;;;;;5033809;28;20037;-65
2021/11/03 09:59:55;;;;;;;2.70;2.13;;;;;;;;;;5018060;28;20045;-63
2021/11/03 10:02:43;;;;;;;4.18;2.67;;;;;;;;;;5031402;28;20067;-63
2021/11/03 10:05:20;;;;;;;3.25;2.72;;;;;;;;;;5032913;28;20021;-64
2021/11/03 10:07:59;;;;;;;2.83;2.17;;;;;;;;;;5021457;28;20535;-63
2021/11/03 10:10:37;;;;;;;2.72;2.13;;;;;;;;;;5030938;28;20048;-62
2021/11/03 10:13:19;;;;;;;3.30;2.53;;;;;;;;;;5033971;28;20398;-62
2021/11/03 10:16:11;;;;;;;3.00;2.35;;;;;;;;;;5032999;28;20035;-59
2021/11/03 10:18:55;;;;;;;3.30;2.72;;;;;;;;;;5034107;28;20347;-59
2021/11/03 10:21:26;;;;;;;3.90;2.58;;;;;;;;;;5034377;28;20033;-59
2021/11/03 10:23:55;;;;;;;4.30;2.72;;;;;;;;;;5034386;28;20029;-59
2021/11/03 10:26:21;;;;;;;3.65;2.95;;;;;;;;;;5035603;28;20107;-59
2021/11/03 10:28:52;;;;;;;3.30;2.75;;;;;;;;;;5033926;28;20469;-59
2021/11/03 10:31:23;;;;;;;2.78;2.17;;;;;;;;;;5034302;28;20044;-59
2021/11/03 10:33:50;;;;;;;;;;;;;;;;;;5036401;28;20035;-59
2021/11/03 10:36:22;;;;;;;2.90;2.13;;;;;;;;;;5033622;28;20018;-58
2021/11/03 10:39:01;;;;;;;3.38;2.30;;;;;;;;;;5032181;28;20037;-58
2021/11/03 10:41:30;;;;;;;3.38;2.50;;;;;;;;;;5033257;28;20044;-58
2021/11/03 10:44:01;;;;;;;3.47;2.97;;;;;;;;;;5032167;28;20328;-58
2021/11/03 10:46:37;;;;;;;6.20;3.30;;;;;;;;;;5033185;28;20033;-59
2021/11/03 10:49:19;;;;;;;2.75;2.20;;;;;;;;;;5031885;28;20153;-59
2021/11/03 10:51:45;;;;;;;2.92;2.50;;;;;;;;;;5031167;28;20030;-59
2021/11/03 10:54:12;;;;;;;3.30;2.63;;;;;;;;;;5034795;28;20479;-59
2021/11/03 10:56:51;;;;;;;3.13;2.55;;;;;;;;;;5031646;28;20033;-59
2021/11/03 10:59:16;;;;;;;4.75;2.78;;;;;;;;;;5033332;28;20024;-59
2021/11/03 11:01:46;;;;;;;4.38;3.00;;;;;;;;;;5028350;28;20052;-58
2021/11/03 11:04:21;;;;;;;4.97;2.70;;;;;;;;;;5031591;28;20355;-59
2021/11/03 11:06:55;;;;;;;4.90;3.13;;;;;;;;;;5028765;28;20053;-59
2021/11/03 11:09:36;;;;;;;2.80;2.40;;;;;;;;;;5031672;28;20107;-58
2021/11/03 11:12:38;;;;;;;3.70;3.05;;;;;;;;;;5031881;28;20029;-58
2021/11/03 11:15:13;;;;;;;3.58;2.80;;;;;;;;;;5021025;28;20126;-58
2021/11/03 11:18:16;;;;;;;4.10;3.47;;;;;;;;;;5030353;28;20040;-59
2021/11/03 11:20:49;;;;;;;3.70;3.20;;;;;;;;;;5031860;28;20028;-59
2021/11/03 11:23:22;;;;;;;2.97;2.55;;;;;;;;;;5030485;28;20029;-59
2021/11/03 11:26:16;;;;;;;3.92;2.78;;;;;;;;;;5033833;28;20174;-60
2021/11/03 11:29:06;;;;;;;4.55;2.85;;;;;;;;;;5034309;28;20036;-59
2021/11/03 11:31:39;;;;;;;7.45;2.95;;;;;;;;;;5036863;28;20029;-59
2021/11/03 11:34:07;;;;;;;3.00;2.22;;;;;;;;;;5034389;28;20060;-59
2021/11/03 11:36:56;;;;;;;3.45;2.88;;;;;;;;;;5034847;28;20025;-60
2021/11/03 11:39:27;;;;;;;2.60;2.00;;;;;;;;;;5036399;28;20045;-60
2021/11/03 11:42:13;;;;;;;4.90;3.92;;;;;;;;;;5035713;28;20041;-59
2021/11/03 11:44:53;;;;;;;14.98;8.88;;;;;;;;;;5031223;28;20036;-60
2021/11/03 11:47:30;;;;;;;11.38;6.32;;;;;;;;;;5034033;28;20493;-60
2021/11/03 11:49:56;;;;;;;7.63;5.35;;;;;;;;;;5033360;28;20148;-61
2021/11/03 11:52:27;;;;;;;4.00;3.42;;;;;;;;;;5030135;28;20048;-61
2021/11/03 11:55:11;;;;;;;7.90;3.13;;;;;;;;;;5033223;28;20064;-61
2021/11/03 11:57:38;;;;;;;3.03;2.53;;;;;;;;;;5034233;28;20554;-61
2021/11/03 12:00:08;;;;;;;3.35;2.72;;;;;;;;;;5030810;28;20100;-61
2021/11/03 12:02:44;;;;;;;2.83;2.05;;;;;;;;;;5035857;28;20037;-60
2021/11/03 12:05:22;;;;;;;3.20;2.60;;;;;;;;;;5033555;28;20462;-61
2021/11/03 12:08:10;;;;;;;2.80;2.40;;;;;;;;;;5031530;28;20140;-60
2021/11/03 12:10:38;;;;;;;3.30;2.40;;;;;;;;;;5033960;28;20048;-60
2021/11/03 12:13:04;;;;;;;2.80;2.10;;;;;;;;;;5036455;28;20150;-61
2021/11/03 12:15:51;;;;;;;2.80;2.10;;;;;;;;;;5035724;28;20033;-60
2021/11/03 12:18:24;;;;;;;3.05;2.45;;;;;;;;;;5034126;28;20029;-60
2021/11/03 12:20:58;;;;;;;3.72;2.28;;;;;;;;;;5035794;28;20160;-60
2021/11/03 12:23:57;;;;;;;3.58;2.33;;;;;;;;;;5034104;28;20030;-62
2021/11/03 12:26:25;;;;;;;3.35;2.53;;;;;;;;;;5024848;28;20049;-61
2021/11/03 12:29:17;;;;;;;3.10;2.60;;;;;;;;;;5025406;28;20075;-61
2021/11/03 12:31:42;;;;;;;2.80;2.38;;;;;;;;;;5031509;28;20072;-60
2021/11/03 12:34:08;;;;;;;3.28;2.33;;;;;;;;;;5033474;28;20450;-60
2021/11/03 12:36:34;;;;;;;3.78;2.85;;;;;;;;;;5033643;28;20542;-61
2021/11/03 12:39:04;;;;;;;2.83;2.05;;;;;;;;;;5031828;28;20033;-61
2021/11/03 12:41:47;;;;;;;8.73;2.53;;;;;;;;;;5036273;28;20467;-61
2021/11/03 12:44:22;;;;;;;3.40;2.92;;;;;;;;;;5034427;28;20034;-60
2021/11/03 12:46:47;;;;;;;4.78;3.33;;;;;;;;;;5033180;28;20413;-60
2021/11/03 12:49:21;;;;;;;4.35;2.45;;;;;;;;;;5031617;28;20105;-60
2021/11/03 12:51:49;;;;;;;3.15;2.33;;;;;;;;;;5032772;28;20420;-60
2021/11/03 12:54:20;;;;;;;3.33;2.40;;;;;;;;;;5034940;28;20463;-60
2021/11/03 12:57:00;;;;;;;;;;;;;;;;;;5034727;28;20037;-60
2021/11/03 12:59:32;;;;;;;2.70;2.15;;;;;;;;;;5048766;28;19993;-60
2021/11/03 13:02:20;;;;;;;3.60;2.88;;;;;;;;;;5038772;28;20745;-60
2021/11/03 13:04:51;;;;;;;3.40;2.58;;;;;;;;;;5034822;28;20032;-60
2021/11/03 13:07:43;;;;;;;3.00;2.50;;;;;;;;;;5033153;28;20041;-60
2021/11/03 13:10:30;;;;;;;2.70;2.08;;;;;;;;;;5032918;28;20061;-60
2021/11/03 13:13:00;;;;;;;3.45;2.65;;;;;;;;;;5032688;28;20040;-60
2021/11/03 13:15:38;;;;;;;3.08;2.30;;;;;;;;;;5031200;28;20029;-60
2021/11/03 13:18:23;;;;;;;2.70;2.22;;;;;;;;;;5034631;28;20700;-60
2021/11/03 13:20:59;;;;;;;2.83;2.35;;;;;;;;;;5037681;28;20091;-60
2021/11/03 13:23:29;;;;;;;2.60;1.98;;;;;;;;;;5031987;28;20108;-60
2021/11/03 13:25:58;;;;;;;2.70;2.22;;;;;;;;;;5035842;28;20033;-60
2021/11/03 13:28:31;;;;;;;3.25;2.25;;;;;;;;;;5036615;28;20154;-60
2021/11/03 13:30:59;;;;;;;3.20;2.33;;;;;;;;;;5036633;28;20057;-59
2021/11/03 13:33:32;;;;;;;2.95;2.33;;;;;;;;;;5039092;28;20033;-64
2021/11/03 13:36:01;;;;;;;2.92;2.35;;;;;;;;;;5033765;28;20037;-64
2021/11/03 13:38:30;;;;;;;2.60;2.05;;;;;;;;;;5034067;28;20040;-64
2021/11/03 13:40:58;;;;;;;2.50;1.95;;;;;;;;;;5033729;28;20107;-60
2021/11/03 13:43:24;;;;;;;3.75;2.60;;;;;;;;;;5025692;28;20032;-59
2021/11/03 13:45:56;;;;;;;3.03;2.47;;;;;;;;;;5036052;28;20040;-59
2021/11/03 13:48:53;;;;;;;2.70;1.95;;;;;;;;;;5031651;28;20607;-60
2021/11/03 13:51:25;;;;;;;2.60;2.17;;;;;;;;;;5031799;28;20108;-59
2021/11/03 13:53:55;;;;;;;2.58;2.15;;;;;;;;;;5033950;28;20033;-60
2021/11/03 13:56:22;;;;;;;2.70;2.00;;;;;;;;;;5034062;28;20372;-60
2021/11/03 13:58:58;;;;;;;3.08;2.08;;;;;;;;;;5036450;28;20534;-59
2021/11/03 14:01:24;;;;;;;2.78;2.22;;;;;;;;;;5027787;28;20500;-60
2021/11/03 14:03:55;;;;;;;3.55;2.28;;;;;;;;;;5032898;28;20025;-60
2021/11/03 14:06:29;;;;;;;2.90;2.35;;;;;;;;;;5032842;28;20029;-60
2021/11/03 14:09:05;;;;;;;3.00;2.40;;;;;;;;;;5034681;28;20021;-63
2021/11/03 14:11:30;;;;;;;4.35;2.50;;;;;;;;;;5033870;28;20378;-63
2021/11/03 14:13:57;;;;;;;2.80;2.10;;;;;;;;;;5038201;28;20033;-63
2021/11/03 14:16:27;;;;;;;3.20;2.47;;;;;;;;;;5035630;28;20033;-60
2021/11/03 14:18:54;;;;;;;3.00;2.30;;;;;;;;;;5035436;28;20109;-63
2021/11/03 14:21:21;;;;;;;3.85;2.55;;;;;;;;;;5034228;28;20039;-59
2021/11/03 14:23:47;;;;;;;3.22;2.58;;;;;;;;;;5037016;28;20068;-60
2021/11/03 14:26:16;;;;;;;3.88;3.47;;;;;;;;;;5034299;28;20065;-64
2021/11/03 14:28:43;;;;;;;3.58;2.63;;;;;;;;;;5036354;28;20138;-60
2021/11/03 14:31:26;;;;;;;3.25;2.75;;;;;;;;;;5035412;28;20033;-61
2021/11/03 14:33:54;;;;;;;2.90;2.35;;;;;;;;;;5033195;28;20451;-60
2021/11/03 14:36:22;;;;;;;2.72;2.20;;;;;;;;;;5034468;28;20117;-61
2021/11/03 14:38:47;;;;;;;4.25;2.97;;;;;;;;;;5035481;28;21116;-61
2021/11/03 14:41:19;;;;;;;4.25;2.33;;;;;;;;;;5032108;28;20128;-61
2021/11/03 14:43:45;;;;;;;2.63;2.10;;;;;;;;;;5036642;28;20029;-61
2021/11/03 14:46:30;;;;;;;2.95;2.47;;;;;;;;;;5035355;28;20029;-61
2021/11/03 14:48:57;;;;;;;3.45;2.38;;;;;;;;;;5033009;28;20041;-62
2021/11/03 14:51:24;;;;;;;4.35;2.25;;;;;;;;;;5035239;28;20106;-62
2021/11/03 14:53:50;;;;;;;2.90;2.42;;;;;;;;;;5035369;28;20095;-62
2021/11/03 14:56:17;;;;;;;2.80;2.33;;;;;;;;;;5032676;28;20025;-62
2021/11/03 14:58:43;;;;;;;3.10;2.65;;;;;;;;;;5028450;28;20037;-62